ADDS METAR Data INFO
IDs: Format: Raw Decoded Include TAF

Data at: 1148 UTC 21 Jun 2018

KOXI 211135Z AUTO 10007KT 3SM SCT008 BKN023 OVC029 19/18 A2979 RMK AO1
KOXI 211115Z AUTO 10006KT 3SM BKN008 OVC023 19/18 A2980 RMK AO1
KOXI 211055Z AUTO 11009KT 3SM OVC008 19/18 A2980 RMK AO1
KOXI 211035Z AUTO 11008KT 2 1/2SM OVC008 18/18 A2980 RMK AO1
KOXI 211015Z AUTO 11009KT 3SM OVC008 19/18 A2979 RMK AO1
KOXI 210955Z AUTO 10008KT 2 1/2SM BKN008 OVC011 19/18 A2979 RMK AO1
KOXI 210935Z AUTO 09006KT 2 1/2SM OVC008 19/18 A2979 RMK AO1
KOXI 210915Z AUTO 09004KT 2 1/2SM OVC006 19/18 A2980 RMK AO1
KOXI 210855Z AUTO 00000KT 2 1/2SM OVC006 19/18 A2979 RMK AO1
KOXI 210835Z AUTO 00000KT 2SM OVC006 19/18 A2980 RMK AO1
KOXI 210815Z AUTO 07006KT 1 3/4SM SCT006 BKN018 OVC060 19/18 A2979 RMK AO1
KOXI 210755Z AUTO 08007KT 2SM SCT008 BKN033 OVC055 19/18 A2980 RMK AO1
KOXI 210735Z AUTO 07006KT 2 1/2SM BKN010 BKN029 OVC050 19/18 A2980 RMK AO1
KOXI 210715Z AUTO 07003KT 2 1/2SM SCT010 BKN060 OVC080 19/18 A2981 RMK AO1
KOXI 210655Z AUTO 10004KT 3SM SCT047 BKN060 BKN075 19/18 A2981 RMK AO1
KOXI 210635Z AUTO 11004KT 4SM SCT050 OVC065 20/18 A2981 RMK AO1
KOXI 210615Z AUTO 08005KT 5SM BKN048 OVC060 20/18 A2982 RMK AO1
KOXI 210555Z AUTO 12003KT 5SM SCT046 BKN060 BKN070 20/18 A2984 RMK AO1
KOXI 210535Z AUTO 11004KT 5SM SCT009 SCT060 BKN100 20/18 A2984 RMK AO1
KOXI 210515Z AUTO 09006KT 4SM SCT009 SCT050 BKN070 20/18 A2984 RMK AO1
KOXI 210455Z AUTO 08005KT 7SM SCT015 SCT050 BKN070 20/18 A2984 RMK AO1
KOXI 210435Z AUTO 10006KT 7SM SCT015 BKN070 20/18 A2984 RMK AO1
KOXI 210415Z AUTO 07007KT 7SM SCT008 BKN060 20/18 A2984 RMK AO1
KOXI 210355Z AUTO 08008KT 7SM OVC008 20/18 A2985 RMK AO1
KOXI 210335Z AUTO 07004KT 7SM SCT008 SCT014 BKN055 20/19 A2985 RMK AO1
KOXI 210315Z AUTO 08005KT 7SM SCT008 SCT014 BKN055 20/19 A2987 RMK AO1
KOXI 210255Z AUTO 06007KT 5SM SCT008 OVC016 21/20 A2986 RMK AO1
KOXI 210235Z AUTO 05004KT 7SM BKN016 21/20 A2986 RMK AO1
KOXI 210215Z AUTO 04007KT 7SM CLR 21/20 A2985 RMK AO1
KOXI 210155Z AUTO 04008KT 7SM SCT012 21/20 A2984 RMK AO1
KOXI 210135Z AUTO 04007KT 10SM SCT012 21/20 A2984 RMK AO1
KOXI 210115Z AUTO 01006KT 10SM CLR 22/20 A2984 RMK AO1
KOXI 210055Z AUTO 01006KT 10SM CLR 22/20 A2984 RMK AO1
KOXI 210035Z AUTO 35005KT 10SM CLR 23/20 A2984 RMK AO1
KOXI 210015Z AUTO 36005KT 10SM CLR 23/19 A2983 RMK AO1
KOXI 202355Z AUTO 01006KT 10SM CLR 23/20 A2982 RMK AO1
KOXI 202335Z AUTO 03007KT 10SM SCT021 23/20 A2981 RMK AO1
KOXI 202315Z AUTO 02009KT 10SM SCT021 SCT038 24/20 A2980 RMK AO1
KOXI 202255Z AUTO 35007KT 10SM SCT024 SCT032 BKN038 25/20 A2980 RMK AO1
KOXI 202235Z AUTO 01008KT 10SM BKN026 BKN032 OVC039 25/20 A2981 RMK AO1
KOXI 202215Z AUTO 36006KT 10SM BKN028 BKN033 25/20 A2982 RMK AO1
KOXI 202155Z AUTO 35007KT 10SM SCT028 SCT034 26/20 A2982 RMK AO1
KOXI 202135Z AUTO 35008KT 10SM BKN029 26/20 A2982 RMK AO1
KOXI 202115Z AUTO 32005KT 10SM BKN029 26/20 A2982 RMK AO1
KOXI 202055Z AUTO 32007KT 10SM BKN030 26/20 A2983 RMK AO1
KOXI 202035Z AUTO 35007KT 10SM BKN028 BKN034 26/20 A2984 RMK AO1
KOXI 202015Z AUTO 34008KT 10SM SCT025 BKN032 26/20 A2984 RMK AO1
KOXI 201955Z AUTO 33008KT 10SM BKN027 BKN032 26/20 A2985 RMK AO1
KOXI 201935Z AUTO 35004KT 10SM SCT024 BKN032 25/20 A2985 RMK AO1
KOXI 201915Z AUTO 32005KT 10SM SCT024 BKN032 26/20 A2985 RMK AO1
KOXI 201855Z AUTO 31007KT 10SM BKN024 OVC032 25/20 A2986 RMK AO1
KOXI 201835Z AUTO 30007KT 10SM BKN025 OVC033 25/20 A2986 RMK AO1
KOXI 201815Z AUTO 31005KT 280V340 10SM SCT021 BKN029 BKN034 26/21 A2987 RMK AO1
KOXI 201755Z AUTO 29007KT 10SM BKN021 BKN029 OVC041 25/20 A2987 RMK AO1
KOXI 201735Z AUTO 29004KT 10SM BKN018 BKN025 25/21 A2987 RMK AO1
KOXI 201715Z AUTO 32005KT 7SM OVC017 24/20 A2987 RMK AO1
KOXI 201655Z AUTO 31005KT 7SM SCT015 BKN019 OVC047 24/21 A2987 RMK AO1
KOXI 201635Z AUTO 28006KT 7SM SCT011 BKN047 24/21 A2988 RMK AO1
KOXI 201615Z AUTO 28004KT 7SM BKN009 BKN019 OVC047 23/20 A2988 RMK AO1
KOXI 201555Z AUTO 27006KT 7SM BKN009 BKN018 OVC035 22/20 A2988 RMK AO1
KOXI 201535Z AUTO 30004KT 5SM OVC009 22/20 A2988 RMK AO1
KOXI 201515Z AUTO 31004KT 5SM OVC007 22/20 A2988 RMK AO1
KOXI 201455Z AUTO 28005KT 5SM OVC007 22/20 A2987 RMK AO1
KOXI 201435Z AUTO 26004KT 5SM OVC007 21/20 A2988 RMK AO1
KOXI 201415Z AUTO 26005KT 4SM OVC007 21/19 A2988 RMK AO1
KOXI 201355Z AUTO 27005KT 4SM OVC007 21/19 A2988 RMK AO1
KOXI 201335Z AUTO 27006KT 3SM OVC005 20/19 A2987 RMK AO1
KOXI 201315Z AUTO 27003KT 2 1/2SM OVC005 20/19 A2987 RMK AO1
KOXI 201255Z AUTO 26004KT 2 1/2SM OVC003 20/19 A2987 RMK AO1
KOXI 201235Z AUTO 26003KT 1 3/4SM OVC003 20/19 A2987 RMK AO1
KOXI 201215Z AUTO 28003KT 1 1/2SM OVC003 20/19 A2987 RMK AO1
KOXI 201155Z AUTO 26004KT 1 1/2SM OVC003 20/19 A2987 RMK AO1
KOXI 201135Z AUTO 00000KT 2SM OVC003 20/19 A2986 RMK AO1
KOXI 201115Z AUTO 28004KT 2 1/2SM OVC005 20/20 A2986 RMK AO1
KOXI 201055Z AUTO 27003KT 2 1/2SM BKN003 OVC008 20/20 A2986 RMK AO1
KOXI 201035Z AUTO 27003KT 2 1/2SM BKN003 OVC013 20/20 A2987 RMK AO1
KOXI 201015Z AUTO 27003KT 2 1/2SM SCT003 SCT008 OVC013 20/20 A2985 RMK AO1
KOXI 200955Z AUTO 00000KT 2 1/2SM BKN015 BKN060 20/20 A2985 RMK AO1
KOXI 200935Z AUTO 00000KT 2SM BKN013 BKN060 20/20 A2985 RMK AO1
KOXI 200915Z AUTO 00000KT 2SM OVC013 21/20 A2986 RMK AO1
KOXI 200855Z AUTO 27003KT 2 1/2SM SCT006 OVC013 21/20 A2987 RMK AO1
KOXI 200835Z AUTO 30003KT 2SM OVC006 21/20 A2987 RMK AO1
KOXI 200815Z AUTO 31004KT 7SM OVC006 21/21 A2987 RMK AO1
KOXI 200755Z AUTO 26003KT 7SM BKN008 OVC012 21/21 A2987 RMK AO1
KOXI 200735Z AUTO 24003KT 10SM OVC008 21/20 A2987 RMK AO1
KOXI 200715Z AUTO 24003KT 10SM BKN008 OVC014 21/20 A2987 RMK AO1
KOXI 200655Z AUTO 22003KT 10SM SCT008 BKN014 21/20 A2987 RMK AO1
KOXI 200635Z AUTO 21004KT 10SM BKN014 21/21 A2988 RMK AO1
KOXI 200615Z AUTO 23003KT 10SM SCT007 OVC012 22/21 A2988 RMK AO1
KOXI 200555Z AUTO 21005KT 10SM OVC010 22/21 A2988 RMK AO1
KOXI 200535Z AUTO 20005KT 10SM BKN010 BKN025 22/21 A2989 RMK AO1
KOXI 200515Z AUTO 21005KT 10SM SCT009 BKN025 22/21 A2988 RMK AO1
KOXI 200455Z AUTO 21005KT 10SM OVC009 22/21 A2989 RMK AO1
KOXI 200435Z AUTO 20005KT 10SM OVC009 22/21 A2989 RMK AO1
KOXI 200415Z AUTO 00000KT 10SM BKN009 OVC014 22/22 A2989 RMK AO1
KOXI 200355Z AUTO 15005KT 10SM SCT007 OVC012 22/21 A2988 RMK AO1
KOXI 200335Z AUTO 13005KT 10SM SCT007 SCT011 22/22 A2987 RMK AO1
KOXI 200315Z AUTO 09004KT 7SM CLR 22/22 A2986 RMK AO1
KOXI 200255Z AUTO 11003KT 10SM CLR 22/21 A2987 RMK AO1
KOXI 200235Z AUTO 00000KT 10SM CLR 22/21 A2987 RMK AO1
KOXI 200215Z AUTO 11003KT 10SM CLR 22/22 A2987 RMK AO1
KOXI 200155Z AUTO 15003KT 10SM CLR 22/22 A2987 RMK AO1
KOXI 200135Z AUTO 17005KT 10SM CLR 23/22 A2988 RMK AO1
KOXI 200115Z AUTO 20005KT 10SM SCT016 23/22 A2989 RMK AO1
KOXI 200055Z AUTO 00000KT 10SM SCT012 23/22 A2989 RMK AO1
KOXI 200035Z AUTO 00000KT 10SM CLR 23/22 A2989 RMK AO1
KOXI 200015Z AUTO 00000KT 10SM SCT014 SCT021 23/22 A2989 RMK AO1
KOXI 192355Z AUTO 00000KT 10SM BKN014 BKN021 23/22 A2989 RMK AO1